Time;durP1;ratioP1;P1;durP2;ratioP2;P2;SDS_P1;SDS_P2;PMS_P1;PMS_P2;Temp;Humidity;BMP_temperature;BMP_pressure;BME280_temperature;BME280_humidity;BME280_pressure;Samples;Min_cycle;Max_cycle;Signal;HPM_P1;HPM_P2
2022/04/01 00:02:04;;;;;;;11.85;10.30;;;11.80;94.10;;;;;;5071550;28;20576;-75
2022/04/01 00:04:30;;;;;;;10.48;9.43;;;11.80;94.20;;;;;;5071770;28;20453;-75
2022/04/01 00:06:56;;;;;;;9.98;8.98;;;11.80;94.30;;;;;;5071508;28;20037;-75
2022/04/01 00:09:22;;;;;;;9.75;8.77;;;11.90;94.20;;;;;;5072113;28;20035;-76
2022/04/01 00:11:48;;;;;;;10.75;9.65;;;12.00;93.80;;;;;;5071791;28;20076;-76
2022/04/01 00:14:14;;;;;;;11.75;9.75;;;12.00;93.50;;;;;;5053503;28;20064;-78
2022/04/01 00:16:40;;;;;;;10.43;9.43;;;12.00;93.60;;;;;;5053802;28;20103;-77
2022/04/01 00:19:06;;;;;;;10.38;8.57;;;12.00;93.70;;;;;;5053916;28;20044;-77
2022/04/01 00:21:32;;;;;;;11.23;10.00;;;12.00;93.70;;;;;;5071716;28;20384;-77
2022/04/01 00:23:58;;;;;;;10.35;9.35;;;12.00;93.60;;;;;;5071853;28;20036;-77
2022/04/01 00:26:23;;;;;;;11.30;10.10;;;12.00;93.40;;;;;;5071262;28;20207;-77
2022/04/01 00:28:49;;;;;;;10.43;9.43;;;12.00;93.30;;;;;;5071599;28;20042;-76
2022/04/01 00:31:15;;;;;;;10.55;9.45;;;12.00;93.30;;;;;;5071530;28;20025;-76
2022/04/01 00:33:41;;;;;;;10.70;9.55;;;12.00;93.10;;;;;;5071762;28;20041;-76
2022/04/01 00:36:07;;;;;;;10.43;9.43;;;12.00;93.30;;;;;;5071375;28;20068;-76
2022/04/01 00:38:32;;;;;;;11.77;10.02;;;12.00;93.50;;;;;;5071871;28;20064;-76
2022/04/01 00:40:59;;;;;;;12.75;11.50;;;12.00;93.80;;;;;;5071650;28;20283;-76
2022/04/01 00:43:30;;;;;;;10.65;9.65;;;12.00;93.80;;;;;;5071408;28;20405;-77
2022/04/01 00:45:57;;;;;;;11.30;10.20;;;11.90;93.90;;;;;;5071360;28;20033;-76
2022/04/01 00:48:24;;;;;;;11.70;10.48;;;12.00;94.00;;;;;;5070890;28;20048;-76
2022/04/01 00:50:50;;;;;;;10.93;9.68;;;12.00;94.10;;;;;;5070565;28;20036;-76
2022/04/01 00:53:20;;;;;;;10.98;9.88;;;12.00;94.00;;;;;;5071164;28;20362;-76
2022/04/01 00:55:47;;;;;;;11.10;9.90;;;12.00;94.00;;;;;;5053417;28;20447;-76
2022/04/01 00:58:13;;;;;;;11.65;10.52;;;12.00;94.00;;;;;;5071499;28;20048;-76
2022/04/01 01:00:38;;;;;;;11.68;10.48;;;12.00;93.90;;;;;;5071434;28;20118;-76
2022/04/01 01:03:05;;;;;;;13.93;11.15;;;12.00;94.20;;;;;;5070907;28;20051;-77
2022/04/01 01:05:31;;;;;;;11.27;10.13;;;12.00;94.10;;;;;;5071289;28;20056;-76
2022/04/01 01:07:57;;;;;;;14.95;10.45;;;12.00;94.30;;;;;;5071115;28;20119;-76
2022/04/01 01:10:24;;;;;;;16.98;10.95;;;12.00;94.30;;;;;;5070710;28;20040;-76
2022/04/01 01:12:51;;;;;;;13.60;11.13;;;12.00;94.00;;;;;;5070680;28;20037;-76
2022/04/01 01:15:18;;;;;;;13.48;10.85;;;12.00;94.00;;;;;;5070760;28;20078;-76
2022/04/01 01:17:45;;;;;;;14.27;11.00;;;12.00;94.10;;;;;;5052947;28;20047;-76
2022/04/01 01:20:15;;;;;;;12.60;11.13;;;12.00;94.00;;;;;;5071075;28;20029;-76
2022/04/01 01:22:41;;;;;;;13.57;10.57;;;12.00;94.10;;;;;;5071165;28;20047;-76
2022/04/01 01:25:12;;;;;;;13.23;10.63;;;12.00;94.00;;;;;;5070820;28;20068;-75
2022/04/01 01:27:38;;;;;;;12.02;10.55;;;12.00;94.20;;;;;;5071135;28;20033;-75
2022/04/01 01:30:06;;;;;;;13.70;11.02;;;12.10;94.20;;;;;;5052944;28;20036;-75
2022/04/01 01:32:34;;;;;;;13.32;11.93;;;12.10;94.00;;;;;;5064442;28;20040;-74
2022/04/01 01:35:00;;;;;;;12.45;10.82;;;12.10;93.60;;;;;;5052115;28;20056;-75
2022/04/01 01:37:26;;;;;;;13.38;12.00;;;12.10;93.70;;;;;;5070752;28;20067;-74
2022/04/01 01:39:52;;;;;;;14.18;12.52;;;12.10;93.50;;;;;;5071079;28;20035;-73
2022/04/01 01:42:18;;;;;;;12.43;11.23;;;12.20;93.70;;;;;;5070307;28;20044;-73
2022/04/01 01:44:44;;;;;;;14.25;12.00;;;12.10;94.00;;;;;;5071086;28;20036;-73
2022/04/01 01:47:10;;;;;;;13.75;11.60;;;12.10;94.00;;;;;;5070582;28;20040;-73
2022/04/01 01:49:36;;;;;;;14.38;12.63;;;12.20;94.20;;;;;;5052717;28;20187;-73
2022/04/01 01:54:52;;;;;;;13.27;11.98;;;12.20;94.20;;;;;;5070883;28;20375;-75
2022/04/01 01:57:25;;;;;;;12.57;11.27;;;12.20;94.00;;;;;;5070342;28;20552;-74
2022/04/01 01:59:54;;;;;;;13.55;11.93;;;12.30;94.10;;;;;;5070692;28;20077;-74
2022/04/01 02:02:20;;;;;;;15.20;12.57;;;12.30;94.00;;;;;;5055013;28;20131;-75
2022/04/01 02:04:46;;;;;;;14.77;13.27;;;12.30;94.00;;;;;;5074670;28;20131;-74
2022/04/01 02:07:13;;;;;;;13.60;12.20;;;12.30;93.80;;;;;;5073967;28;20040;-74
2022/04/01 02:09:43;;;;;;;14.32;12.82;;;12.30;93.70;;;;;;5074393;28;20033;-75
2022/04/01 02:12:09;;;;;;;14.73;13.23;;;12.30;94.00;;;;;;5074179;28;20037;-75
2022/04/01 02:14:34;;;;;;;15.50;13.55;;;12.30;94.10;;;;;;5074684;28;20040;-83
2022/04/01 02:17:00;;;;;;;18.00;15.10;;;12.40;94.20;;;;;;5073646;28;20029;-80
2022/04/01 02:19:26;;;;;;;16.70;14.43;;;12.40;94.30;;;;;;5074051;28;20082;-80
2022/04/01 02:21:53;;;;;;;14.68;13.15;;;12.30;94.40;;;;;;5074340;28;20052;-81
2022/04/01 02:24:20;;;;;;;16.65;14.95;;;12.30;94.40;;;;;;5074221;28;20573;-81
2022/04/01 02:26:49;;;;;;;17.95;14.38;;;12.40;94.40;;;;;;5074569;28;20059;-84
2022/04/01 02:29:18;;;;;;;18.63;16.30;;;12.40;94.50;;;;;;5056552;28;20460;-84
2022/04/01 02:31:45;;;;;;;17.73;15.50;;;12.40;94.50;;;;;;5074266;28;20029;-85
2022/04/01 02:34:11;;;;;;;17.20;14.02;;;12.40;94.50;;;;;;5073710;28;20029;-84
2022/04/01 02:36:38;;;;;;;16.50;14.57;;;12.40;94.50;;;;;;5074423;28;20366;-82
2022/04/01 02:39:05;;;;;;;17.83;15.15;;;12.40;94.40;;;;;;5073764;28;20040;-82
2022/04/01 02:41:32;;;;;;;17.80;14.68;;;12.40;94.50;;;;;;5070481;28;20400;-83
2022/04/01 02:44:09;;;;;;;21.98;16.95;;;12.40;94.50;;;;;;5073596;28;20069;-81
2022/04/01 02:46:37;;;;;;;19.48;15.82;;;12.40;94.50;;;;;;5073787;28;20044;-80
2022/04/01 02:49:06;;;;;;;23.80;17.63;;;12.40;94.60;;;;;;5055548;28;20048;-81
2022/04/01 02:51:36;;;;;;;22.13;17.50;;;12.40;94.60;;;;;;5066811;28;20380;-79
2022/04/01 02:54:06;;;;;;;21.67;18.63;;;12.40;94.70;;;;;;5073763;28;20396;-80
2022/04/01 02:56:32;;;;;;;;;;;12.40;94.70;;;;;;5068851;28;20036;-81
2022/04/01 02:58:59;;;;;;;21.50;16.13;;;12.40;94.80;;;;;;5070304;28;19981;-81
2022/04/01 03:01:25;;;;;;;27.23;19.42;;;12.40;94.80;;;;;;5055023;28;20048;-80
2022/04/01 03:03:51;;;;;;;21.60;17.35;;;12.40;94.80;;;;;;5074194;28;20528;-80
2022/04/01 03:06:16;;;;;;;20.35;17.38;;;12.40;94.70;;;;;;5056344;28;20032;-80
2022/04/01 03:08:43;;;;;;;21.38;17.13;;;12.40;94.70;;;;;;5074083;28;20541;-80
2022/04/01 03:11:09;;;;;;;21.15;17.55;;;12.40;94.70;;;;;;5073041;28;20040;-78
2022/04/01 03:13:35;;;;;;;20.02;16.88;;;12.40;94.80;;;;;;5072780;28;20130;-81
2022/04/01 03:16:02;;;;;;;19.35;15.63;;;12.40;94.70;;;;;;5073809;28;20068;-80
2022/04/01 03:18:28;;;;;;;21.83;18.70;;;12.40;94.60;;;;;;5072570;28;20078;-79
2022/04/01 03:20:53;;;;;;;20.38;16.65;;;12.30;94.60;;;;;;5073325;28;20107;-78
2022/04/01 03:23:19;;;;;;;20.83;17.17;;;12.30;95.00;;;;;;5072805;28;20120;-79
2022/04/01 03:25:45;;;;;;;20.08;15.75;;;12.30;94.90;;;;;;5073589;28;20051;-80
2022/04/01 03:28:12;;;;;;;18.25;16.02;;;12.40;94.70;;;;;;5073101;28;20032;-80
2022/04/01 03:30:37;;;;;;;23.50;16.58;;;12.40;94.70;;;;;;5073535;28;20040;-82
2022/04/01 03:33:03;;;;;;;19.13;16.00;;;12.40;94.60;;;;;;5073564;28;20507;-81
2022/04/01 03:35:29;;;;;;;19.50;16.48;;;12.40;94.60;;;;;;5073031;28;20060;-82
2022/04/01 03:37:55;;;;;;;19.65;15.60;;;12.40;94.50;;;;;;5073828;28;20064;-80
2022/04/01 03:40:22;;;;;;;17.55;15.15;;;12.40;94.50;;;;;;5073296;28;20039;-81
2022/04/01 03:42:51;;;;;;;17.95;15.93;;;12.40;94.40;;;;;;5072575;28;20048;-80
2022/04/01 03:45:18;;;;;;;17.63;15.80;;;12.40;94.30;;;;;;5072427;28;20061;-79
2022/04/01 03:47:43;;;;;;;17.50;15.60;;;12.40;94.30;;;;;;5072930;28;20041;-80
2022/04/01 03:50:11;;;;;;;17.20;15.40;;;12.40;94.30;;;;;;5054945;28;20040;-80
2022/04/01 03:52:37;;;;;;;17.98;15.85;;;12.40;94.20;;;;;;5072487;28;20091;-80
2022/04/01 03:55:05;;;;;;;18.52;15.48;;;12.40;94.20;;;;;;5071402;28;20381;-78
2022/04/01 03:57:36;;;;;;;17.95;15.07;;;12.40;94.50;;;;;;5064941;28;20036;-80
2022/04/01 04:00:04;;;;;;;21.05;16.05;;;12.40;94.40;;;;;;5073209;28;20485;-79
2022/04/01 04:02:34;;;;;;;20.00;15.55;;;12.40;94.40;;;;;;5072473;28;20041;-80
2022/04/01 04:05:01;;;;;;;23.40;16.20;;;12.50;94.50;;;;;;5071984;28;20704;-81
2022/04/01 04:07:29;;;;;;;23.27;15.90;;;12.50;94.40;;;;;;5054804;28;20047;-82
2022/04/01 04:09:57;;;;;;;20.38;15.88;;;12.50;94.40;;;;;;5055186;28;20032;-82
2022/04/01 04:12:25;;;;;;;19.30;16.10;;;12.50;94.40;;;;;;5072788;28;20471;-82
2022/04/01 04:14:54;;;;;;;19.30;15.57;;;12.50;94.50;;;;;;5055039;28;20057;-82
2022/04/01 04:17:37;;;;;;;18.85;16.30;;;12.50;94.50;;;;;;5072622;28;20032;-82
2022/04/01 04:20:14;;;;;;;22.00;17.27;;;12.50;94.50;;;;;;5054409;28;20041;-81
2022/04/01 04:22:50;;;;;;;18.00;15.57;;;12.50;94.60;;;;;;5066582;28;20443;-81
2022/04/01 04:25:21;;;;;;;17.33;15.55;;;12.50;94.60;;;;;;5054102;28;20094;-80
2022/04/01 04:27:59;;;;;;;19.17;15.43;;;12.50;94.80;;;;;;5072695;28;20044;-81
2022/04/01 04:30:32;;;;;;;17.15;14.10;;;12.50;94.70;;;;;;5072204;28;20112;-80
2022/04/01 04:33:09;;;;;;;17.60;14.85;;;12.50;94.70;;;;;;5054087;28;20120;-81
2022/04/01 04:35:40;;;;;;;17.00;14.68;;;12.50;94.60;;;;;;5068783;28;20488;-81
2022/04/01 04:38:07;;;;;;;20.23;16.77;;;12.50;94.60;;;;;;5072229;28;20035;-82
2022/04/01 04:40:37;;;;;;;21.48;16.70;;;12.50;94.60;;;;;;5054636;28;20444;-81
2022/04/01 04:43:03;;;;;;;23.95;16.65;;;12.50;94.80;;;;;;5054693;28;20047;-82
2022/04/01 04:45:29;;;;;;;19.95;16.92;;;12.50;94.80;;;;;;5054427;28;20727;-82
2022/04/01 04:47:55;;;;;;;17.67;15.63;;;12.50;94.70;;;;;;5055188;28;20041;-82
2022/04/01 04:50:21;;;;;;;19.63;16.63;;;12.50;94.60;;;;;;5072016;28;20056;-82
2022/04/01 04:52:53;;;;;;;19.70;15.73;;;12.50;94.90;;;;;;5074037;28;20389;-83
2022/04/01 04:55:20;;;;;;;19.35;15.38;;;12.50;94.60;;;;;;5054188;28;20028;-79
2022/04/01 04:57:49;;;;;;;24.35;18.02;;;12.50;94.60;;;;;;5071312;28;20062;-78
2022/04/01 05:00:19;;;;;;;21.67;16.67;;;12.50;94.60;;;;;;5049748;28;20033;-77
2022/04/01 05:03:22;;;;;;;22.00;17.05;;;12.50;94.90;;;;;;5031051;28;20489;-82
2022/04/01 05:05:51;;;;;;;23.52;17.63;;;12.50;94.80;;;;;;5028897;28;20067;-81
2022/04/01 05:08:28;;;;;;;26.13;19.05;;;12.50;94.80;;;;;;5052473;28;20052;-81
2022/04/01 05:11:16;;;;;;;22.80;17.88;;;12.50;95.00;;;;;;5050731;28;20025;-81
2022/04/01 05:14:11;;;;;;;25.35;20.30;;;12.50;95.00;;;;;;5046430;28;20052;-82
2022/04/01 05:16:48;;;;;;;28.17;18.63;;;12.50;95.00;;;;;;5033245;28;20300;-81
2022/04/01 05:19:23;;;;;;;25.48;19.80;;;12.50;95.20;;;;;;5050682;28;20090;-81
2022/04/01 05:22:02;;;;;;;24.65;17.75;;;12.50;94.90;;;;;;5052060;28;20025;-82
2022/04/01 05:24:52;;;;;;;27.17;18.63;;;12.50;94.90;;;;;;5051594;28;20025;-82
2022/04/01 05:27:32;;;;;;;21.55;17.08;;;12.50;94.70;;;;;;5049667;28;20040;-81
2022/04/01 05:30:31;;;;;;;26.58;18.45;;;12.50;94.70;;;;;;5052349;28;20055;-81
2022/04/01 05:33:15;;;;;;;20.50;16.15;;;12.50;94.60;;;;;;5029660;28;20065;-81
2022/04/01 05:35:43;;;;;;;21.52;15.73;;;12.50;94.90;;;;;;5045980;28;20079;-80
2022/04/01 05:38:08;;;;;;;21.85;16.20;;;12.50;94.90;;;;;;5040437;28;20044;-80
2022/04/01 05:40:36;;;;;;;19.00;14.95;;;12.60;94.70;;;;;;5038329;28;20393;-81
2022/04/01 05:43:04;;;;;;;20.50;16.50;;;12.60;94.80;;;;;;5055560;28;20124;-81
2022/04/01 05:45:31;;;;;;;20.73;15.48;;;12.60;94.80;;;;;;5039708;28;20147;-83
2022/04/01 05:47:58;;;;;;;22.65;15.57;;;12.70;94.80;;;;;;5038395;28;20039;-81
2022/04/01 05:50:25;;;;;;;22.85;16.35;;;12.70;94.70;;;;;;5052548;28;20474;-81
2022/04/01 05:52:52;;;;;;;20.73;15.05;;;12.70;94.70;;;;;;5052445;28;20033;-79
2022/04/01 05:55:23;;;;;;;20.40;13.93;;;12.70;94.70;;;;;;5053103;28;20033;-79
2022/04/01 05:57:48;;;;;;;18.25;12.30;;;12.70;94.50;;;;;;5054940;28;20029;-80
2022/04/01 06:00:15;;;;;;;13.70;11.15;;;12.70;94.50;;;;;;5062653;28;20047;-79
2022/04/01 06:03:14;;;;;;;14.02;11.00;;;12.70;94.50;;;;;;5075675;28;20542;-80
2022/04/01 06:05:56;;;;;;;13.45;9.30;;;12.70;94.40;;;;;;5075894;28;20036;-76
2022/04/01 06:08:44;;;;;;;11.52;9.38;;;12.80;94.50;;;;;;5075534;28;20144;-77
2022/04/01 06:11:36;;;;;;;29.70;13.20;;;12.80;94.50;;;;;;5078815;28;20059;-76
2022/04/01 06:14:02;;;;;;;19.20;13.77;;;12.90;94.40;;;;;;5071334;28;20081;-80
2022/04/01 06:17:04;;;;;;;18.42;14.40;;;12.90;93.80;;;;;;5057747;28;20055;-80
2022/04/01 06:19:47;;;;;;;22.55;16.85;;;13.00;93.90;;;;;;5056280;28;20087;-81
2022/04/01 06:22:17;;;;;;;22.83;16.10;;;13.00;93.60;;;;;;5059056;28;20127;-82
2022/04/01 06:25:20;;;;;;;22.30;16.48;;;13.00;93.40;;;;;;5061046;28;20123;-78
2022/04/01 06:27:49;;;;;;;23.38;15.55;;;13.00;93.40;;;;;;5053735;28;20079;-77
2022/04/01 06:30:17;;;;;;;22.20;16.92;;;13.00;93.40;;;;;;5071970;28;20051;-79
2022/04/01 06:32:55;;;;;;;22.52;15.18;;;13.00;93.70;;;;;;5071213;28;20041;-80
2022/04/01 06:35:35;;;;;;;19.23;14.30;;;13.10;93.80;;;;;;5056073;28;20043;-81
2022/04/01 06:38:08;;;;;;;15.65;12.57;;;13.10;94.10;;;;;;5073264;28;20035;-79
2022/04/01 06:40:56;;;;;;;17.55;12.93;;;13.10;93.90;;;;;;5046242;28;20155;-80
2022/04/01 06:43:23;;;;;;;13.68;11.40;;;13.20;93.80;;;;;;5052038;28;20123;-80
2022/04/01 06:45:48;;;;;;;14.02;11.85;;;13.20;93.80;;;;;;5074931;28;20041;-79
2022/04/01 06:48:14;;;;;;;14.70;12.00;;;13.20;93.90;;;;;;5073391;28;20171;-80
2022/04/01 06:50:42;;;;;;;14.93;11.45;;;13.30;93.70;;;;;;5074033;28;20173;-79
2022/04/01 06:53:08;;;;;;;21.17;13.02;;;13.30;93.70;;;;;;5075118;28;20036;-78
2022/04/01 06:55:36;;;;;;;20.90;14.18;;;13.30;93.70;;;;;;5074976;28;20501;-78
2022/04/01 06:58:05;;;;;;;19.58;15.63;;;13.30;93.70;;;;;;5074161;28;20054;-80
2022/04/01 07:00:32;;;;;;;20.40;15.40;;;13.30;93.50;;;;;;5057056;28;20033;-81
2022/04/01 07:02:57;;;;;;;19.70;16.10;;;13.30;93.40;;;;;;5075379;28;20036;-81
2022/04/01 07:05:23;;;;;;;23.25;16.83;;;13.40;93.40;;;;;;5057026;28;20484;-81
2022/04/01 07:07:49;;;;;;;19.13;14.68;;;13.40;93.30;;;;;;5074602;28;20095;-82
2022/04/01 07:10:14;;;;;;;23.55;15.55;;;13.40;93.40;;;;;;5075253;28;20033;-83
2022/04/01 07:12:40;;;;;;;22.80;16.27;;;13.50;93.00;;;;;;5075392;28;20059;-81
2022/04/01 07:15:08;;;;;;;19.88;15.70;;;13.50;93.20;;;;;;5074928;28;20554;-82
2022/04/01 07:17:34;;;;;;;20.05;15.63;;;13.50;93.10;;;;;;5074432;28;20476;-81
2022/04/01 07:20:00;;;;;;;191.05;147.88;;;13.50;93.10;;;;;;5074534;28;20037;-82
2022/04/01 07:22:26;;;;;;;296.45;247.05;;;13.60;93.30;;;;;;5074797;28;20428;-81
2022/04/01 07:24:51;;;;;;;48.35;42.83;;;13.70;93.40;;;;;;5074369;28;20025;-80
2022/04/01 07:27:17;;;;;;;19.20;14.68;;;13.70;92.80;;;;;;5074548;28;20032;-81
2022/04/01 07:29:43;;;;;;;16.13;13.18;;;13.70;92.90;;;;;;5072780;28;20032;-80
2022/04/01 07:34:54;;;;;;;21.10;15.32;;;13.70;92.80;;;;;;5074982;28;20077;-79
2022/04/01 07:37:24;;;;;;;23.02;16.17;;;13.70;92.80;;;;;;5072526;28;20036;-79
2022/04/01 07:39:51;;;;;;;21.67;16.15;;;13.70;92.80;;;;;;5058834;28;20032;-80
2022/04/01 07:42:20;;;;;;;24.52;17.92;;;13.70;92.80;;;;;;5073447;28;20044;-81
2022/04/01 07:44:46;;;;;;;22.58;17.75;;;13.80;92.90;;;;;;5074287;28;20531;-81
2022/04/01 07:47:14;;;;;;;24.45;17.45;;;13.80;92.90;;;;;;5056391;28;20052;-81
2022/04/01 07:49:43;;;;;;;25.63;18.15;;;13.80;93.00;;;;;;5073634;28;20036;-83
2022/04/01 07:52:10;;;;;;;21.83;18.27;;;13.80;92.70;;;;;;5071522;28;20135;-82
2022/04/01 07:54:40;;;;;;;23.75;19.02;;;13.80;92.70;;;;;;5070203;28;20060;-82
2022/04/01 07:57:07;;;;;;;23.90;19.65;;;13.80;92.60;;;;;;5072240;28;20040;-82
2022/04/01 07:59:33;;;;;;;29.20;19.65;;;13.80;92.30;;;;;;5073095;28;20040;-83
2022/04/01 08:02:00;;;;;;;25.25;18.60;;;13.90;92.60;;;;;;5055972;28;20050;-82
2022/04/01 08:04:27;;;;;;;27.23;20.15;;;13.90;92.50;;;;;;5056367;28;20040;-83
2022/04/01 08:06:56;;;;;;;29.05;21.20;;;14.00;92.30;;;;;;5074274;28;20352;-80
2022/04/01 08:09:26;;;;;;;21.92;18.67;;;14.00;92.20;;;;;;5058179;28;20038;-82
2022/04/01 08:11:55;;;;;;;24.75;18.20;;;14.00;91.90;;;;;;5082001;28;20043;-82
2022/04/01 08:14:22;;;;;;;21.20;15.47;;;14.00;91.90;;;;;;5073983;28;20350;-81
2022/04/01 08:16:48;;;;;;;22.25;15.93;;;14.00;91.90;;;;;;5073463;28;20044;-81
2022/04/01 08:19:16;;;;;;;20.40;14.75;;;14.00;92.20;;;;;;5073231;28;20036;-81
2022/04/01 08:21:44;;;;;;;16.23;13.48;;;14.00;92.30;;;;;;5051791;28;20037;-82
2022/04/01 08:24:11;;;;;;;19.30;13.77;;;14.10;92.10;;;;;;5076637;28;20103;-83
2022/04/01 08:26:37;;;;;;;13.93;12.02;;;14.10;91.70;;;;;;5060029;28;20393;-83
2022/04/01 08:29:03;;;;;;;16.52;10.95;;;14.10;92.10;;;;;;5060709;28;20090;-83
2022/04/01 08:31:30;;;;;;;19.55;12.27;;;14.20;92.00;;;;;;5062898;28;20503;-83
2022/04/01 08:33:57;;;;;;;16.33;11.85;;;14.20;91.60;;;;;;5073387;28;20044;-84
2022/04/01 08:36:24;;;;;;;14.93;9.98;;;14.20;91.80;;;;;;5077935;28;20035;-83
2022/04/01 08:38:50;;;;;;;16.35;11.15;;;14.30;91.90;;;;;;5076053;28;20036;-83
2022/04/01 08:41:21;;;;;;;15.98;11.43;;;14.30;91.70;;;;;;5059110;28;20130;-85
2022/04/01 08:43:47;;;;;;;;;;;14.30;91.60;;;;;;5056255;28;20041;-83
2022/04/01 08:46:15;;;;;;;13.55;9.55;;;14.30;91.30;;;;;;5067749;28;20281;-84
2022/04/01 08:48:41;;;;;;;20.20;9.48;;;14.10;91.50;;;;;;5074264;28;20538;-84
2022/04/01 08:51:07;;;;;;;14.10;10.02;;;14.20;91.60;;;;;;5055090;28;20036;-83
2022/04/01 08:53:41;;;;;;;16.10;10.23;;;14.20;91.60;;;;;;5094751;28;20032;-83
2022/04/01 08:56:08;;;;;;;14.07;9.73;;;14.30;91.60;;;;;;5060892;28;20047;-82
2022/04/01 08:58:34;;;;;;;18.58;12.68;;;14.40;91.70;;;;;;5078410;28;20028;-81
2022/04/01 09:01:02;;;;;;;16.60;10.88;;;14.50;90.90;;;;;;5077515;28;20039;-82
2022/04/01 09:03:29;;;;;;;15.68;9.80;;;14.50;90.60;;;;;;5061044;28;20046;-82
2022/04/01 09:05:58;;;;;;;12.88;8.68;;;14.60;90.90;;;;;;5055405;28;20037;-81
2022/04/01 09:08:44;;;;;;;12.43;10.07;;;14.80;90.70;;;;;;5046488;28;20035;-82
2022/04/01 09:11:12;;;;;;;10.32;7.15;;;15.10;90.20;;;;;;5075912;28;20484;-82
2022/04/01 09:13:45;;;;;;;14.85;10.77;;;15.30;90.20;;;;;;5054010;28;20048;-81
2022/04/01 09:16:36;;;;;;;11.73;8.93;;;15.40;88.80;;;;;;5073999;28;20039;-83
2022/04/01 09:19:04;;;;;;;15.23;10.95;;;15.50;88.50;;;;;;5079804;28;20443;-83
2022/04/01 09:21:32;;;;;;;19.33;12.40;;;15.60;87.20;;;;;;5060317;28;20040;-83
2022/04/01 09:24:00;;;;;;;18.17;12.88;;;15.40;86.80;;;;;;5065263;28;20066;-83
2022/04/01 09:26:38;;;;;;;15.65;11.93;;;15.30;87.30;;;;;;5073641;28;20035;-81
2022/04/01 09:29:08;;;;;;;15.68;12.18;;;15.30;88.20;;;;;;5074600;28;20124;-82
2022/04/01 09:31:37;;;;;;;14.15;11.20;;;15.30;88.50;;;;;;5074760;28;20032;-83
2022/04/01 09:34:09;;;;;;;18.27;13.65;;;15.30;88.30;;;;;;5075330;28;20044;-83
2022/04/01 09:36:39;;;;;;;15.10;11.52;;;15.30;88.00;;;;;;5075489;28;20098;-82
2022/04/01 09:39:10;;;;;;;15.43;11.02;;;15.30;87.80;;;;;;5075659;28;20037;-81
2022/04/01 09:41:37;;;;;;;15.95;11.35;;;15.10;88.70;;;;;;5079934;28;20037;-80
2022/04/01 09:44:03;;;;;;;17.77;11.60;;;15.10;88.20;;;;;;5081470;28;20048;-82
2022/04/01 09:46:29;;;;;;;18.27;10.75;;;15.00;88.30;;;;;;5058647;28;20046;-82
2022/04/01 09:49:00;;;;;;;15.20;11.10;;;14.80;89.30;;;;;;5078552;28;20105;-83
2022/04/01 09:51:40;;;;;;;12.90;10.65;;;14.80;89.90;;;;;;5071959;28;20012;-80
2022/04/01 09:54:06;;;;;;;16.10;11.35;;;14.80;90.10;;;;;;5081633;28;20051;-81
2022/04/01 09:56:39;;;;;;;16.23;10.88;;;14.80;90.40;;;;;;5063566;28;20056;-79
2022/04/01 09:59:06;;;;;;;14.48;11.40;;;14.80;90.40;;;;;;5075150;28;20051;-80
2022/04/01 10:01:37;;;;;;;14.05;11.32;;;14.80;90.10;;;;;;5054120;28;20128;-80
2022/04/01 10:04:04;;;;;;;18.73;11.32;;;14.70;90.40;;;;;;5071550;28;20032;-81
2022/04/01 10:06:32;;;;;;;13.55;10.63;;;14.60;91.10;;;;;;5071183;28;20025;-81
2022/04/01 10:09:10;;;;;;;15.80;11.68;;;14.60;91.20;;;;;;5065819;28;20063;-81
2022/04/01 10:11:39;;;;;;;15.93;11.95;;;14.70;90.90;;;;;;5068175;28;20028;-81
2022/04/01 10:14:26;;;;;;;19.90;13.23;;;15.00;90.90;;;;;;5069669;28;20055;-79
2022/04/01 10:16:55;;;;;;;21.45;13.27;;;15.10;89.80;;;;;;5054296;28;20555;-82
2022/04/01 10:19:35;;;;;;;18.83;14.07;;;15.10;88.80;;;;;;5072037;28;20032;-81
2022/04/01 10:22:01;;;;;;;17.90;12.88;;;15.10;90.00;;;;;;5053356;28;20115;-82
2022/04/01 10:24:40;;;;;;;20.10;13.00;;;15.10;89.80;;;;;;5056080;28;20120;-81
2022/04/01 10:27:24;;;;;;;16.38;12.32;;;15.10;90.00;;;;;;5075552;28;20029;-80
2022/04/01 10:29:54;;;;;;;20.85;14.02;;;15.30;89.30;;;;;;5075036;28;20103;-81
2022/04/01 10:32:27;;;;;;;15.30;10.32;;;15.40;88.80;;;;;;5073931;28;20046;-81
2022/04/01 10:34:56;;;;;;;22.63;11.73;;;15.50;88.70;;;;;;5057304;28;20033;-80
2022/04/01 10:37:25;;;;;;;15.13;11.20;;;15.50;88.10;;;;;;5070984;28;20033;-81
2022/04/01 10:39:58;;;;;;;15.18;9.70;;;15.60;88.10;;;;;;5073236;28;20021;-82
2022/04/01 10:42:25;;;;;;;19.75;9.60;;;15.70;86.80;;;;;;5065722;28;20436;-80
2022/04/01 10:44:57;;;;;;;15.43;9.23;;;16.00;86.30;;;;;;5050962;28;20064;-79
2022/04/01 10:51:36;;;;;;;14.63;9.52;;;16.10;85.00;;;;;;5071612;28;20613;-81
2022/04/01 10:53:40;;;;;;;15.15;9.57;;;16.30;83.70;;;;;;5070193;28;20615;-79
2022/04/01 10:56:23;;;;;;;14.52;10.00;;;16.40;82.90;;;;;;5055157;28;20123;-78
2022/04/01 10:59:08;;;;;;;15.05;9.65;;;16.40;83.50;;;;;;5055457;28;20033;-78
2022/04/01 11:01:36;;;;;;;13.88;8.82;;;16.40;84.20;;;;;;5073131;28;20468;-79
2022/04/01 11:04:21;;;;;;;11.30;8.52;;;16.60;84.40;;;;;;5056546;28;20033;-79
2022/04/01 11:07:14;;;;;;;19.23;9.32;;;16.70;83.80;;;;;;5073950;28;20040;-78
2022/04/01 11:09:55;;;;;;;14.52;8.07;;;16.90;81.60;;;;;;5056386;28;20033;-78
2022/04/01 11:12:29;;;;;;;14.35;7.45;;;17.10;81.50;;;;;;5072080;28;20124;-79
2022/04/01 11:17:49;;;;;;;13.73;6.35;;;17.40;80.50;;;;;;5065024;28;20056;-78
2022/04/01 11:20:32;;;;;;;11.00;6.63;;;17.50;77.90;;;;;;5073200;28;20032;-79
2022/04/01 11:23:00;;;;;;;12.25;6.00;;;17.60;78.90;;;;;;5069737;28;20060;-80
2022/04/01 11:25:31;;;;;;;9.77;7.25;;;17.80;80.50;;;;;;5074544;28;20039;-79
2022/04/01 11:27:57;;;;;;;11.25;6.57;;;18.00;77.80;;;;;;5074637;28;20127;-83
2022/04/01 11:30:25;;;;;;;13.35;5.95;;;18.10;77.50;;;;;;5062051;28;20087;-80
2022/04/01 11:33:11;;;;;;;12.85;5.95;;;18.30;78.00;;;;;;5058226;28;20048;-79
2022/04/01 11:35:47;;;;;;;11.73;6.00;;;18.30;75.60;;;;;;5067094;28;20036;-80
2022/04/01 11:38:21;;;;;;;13.20;5.90;;;18.40;75.60;;;;;;5053750;28;20036;-80
2022/04/01 11:41:00;;;;;;;15.73;6.57;;;18.60;75.50;;;;;;5050349;28;20024;-81
2022/04/01 11:43:27;;;;;;;10.93;5.28;;;18.90;73.10;;;;;;5072369;28;20048;-81
2022/04/01 11:46:02;;;;;;;13.00;5.97;;;19.40;73.60;;;;;;5073964;28;20025;-83
2022/04/01 11:48:29;;;;;;;9.98;4.65;;;19.90;68.60;;;;;;5053594;28;20040;-79
2022/04/01 11:51:02;;;;;;;13.52;6.47;;;20.40;68.50;;;;;;5071306;28;20037;-83
2022/04/01 11:53:43;;;;;;;15.45;6.03;;;20.60;65.30;;;;;;5072590;28;20082;-80
2022/04/01 11:56:10;;;;;;;11.00;5.65;;;20.80;66.50;;;;;;5050575;28;20484;-81
2022/04/01 11:58:52;;;;;;;14.88;5.60;;;21.10;64.20;;;;;;5070492;28;20052;-79
2022/04/01 12:01:20;;;;;;;11.73;5.47;;;21.10;62.00;;;;;;5052241;28;20055;-79
2022/04/01 12:03:46;;;;;;;15.38;5.22;;;21.00;64.70;;;;;;5070195;28;20036;-79
2022/04/01 12:09:02;;;;;;;12.75;4.88;;;21.10;61.70;;;;;;5070044;28;20078;-80
2022/04/01 12:11:28;;;;;;;13.80;5.50;;;20.80;61.70;;;;;;5054596;28;20119;-80
2022/04/01 12:13:54;;;;;;;9.95;4.70;;;20.50;62.70;;;;;;5049861;28;20139;-81
2022/04/01 12:16:21;;;;;;;12.13;5.18;;;20.10;62.20;;;;;;5072201;28;20029;-83
2022/04/01 12:18:49;;;;;;;8.43;4.55;;;19.70;64.70;;;;;;5049452;28;20036;-79
2022/04/01 12:21:21;;;;;;;9.27;4.40;;;19.40;65.70;;;;;;5065937;28;20029;-80
2022/04/01 12:23:48;;;;;;;8.73;4.40;;;19.10;64.90;;;;;;5066961;28;20151;-80
2022/04/01 12:26:19;;;;;;;10.98;4.60;;;18.80;65.60;;;;;;5070267;28;20098;-79
2022/04/01 12:28:49;;;;;;;7.13;4.50;;;18.70;66.30;;;;;;5052108;28;20484;-79
2022/04/01 12:31:17;;;;;;;11.50;5.55;;;18.60;67.60;;;;;;5066427;28;20058;-79
2022/04/01 12:33:50;;;;;;;11.25;5.50;;;18.30;69.30;;;;;;5067995;28;20127;-79
2022/04/01 12:36:27;;;;;;;9.55;5.10;;;18.10;72.60;;;;;;5069062;28;20114;-78
2022/04/01 12:39:05;;;;;;;10.07;5.07;;;17.90;73.10;;;;;;5053733;28;20063;-82
2022/04/01 12:41:32;;;;;;;19.02;7.60;;;17.60;76.50;;;;;;5070294;28;20040;-82
2022/04/01 12:44:00;;;;;;;13.25;6.47;;;17.30;77.10;;;;;;5053425;28;20064;-81
2022/04/01 12:46:29;;;;;;;9.55;5.15;;;16.90;77.30;;;;;;5051002;28;20055;-81
2022/04/01 12:48:59;;;;;;;14.40;5.50;;;16.70;79.50;;;;;;5069522;28;20040;-81
2022/04/01 12:51:29;;;;;;;10.95;5.80;;;16.60;78.90;;;;;;5071277;28;20434;-83
2022/04/01 12:54:08;;;;;;;12.75;6.50;;;16.50;83.80;;;;;;5054605;28;20060;-83
2022/04/01 12:56:43;;;;;;;11.20;5.32;;;16.50;81.60;;;;;;5051720;28;20436;-84
2022/04/01 12:59:12;;;;;;;11.93;6.53;;;16.40;84.00;;;;;;5073415;28;20048;-79
2022/04/01 13:01:57;;;;;;;11.13;6.25;;;16.50;83.70;;;;;;5040084;28;20036;-79